createdAt,value
2022-10-03T00:00:11.265Z,22
2022-10-03T00:15:02.200Z,22
2022-10-03T00:30:05.546Z,22
2022-10-03T00:45:03.634Z,22
2022-10-03T01:00:06.632Z,22
2022-10-03T01:15:02.227Z,21.9
2022-10-03T01:30:04.927Z,21.9
2022-10-03T01:45:02.679Z,21.9
2022-10-03T02:00:07.134Z,21.9
2022-10-03T02:15:02.930Z,21.9
2022-10-03T02:30:04.974Z,21.9
2022-10-03T02:45:02.511Z,21.9
2022-10-03T03:00:05.279Z,21.9
2022-10-03T03:15:02.707Z,21.9
2022-10-03T03:30:04.066Z,21.9
2022-10-03T03:45:02.573Z,21.9
2022-10-03T04:00:04.977Z,21.9
2022-10-03T04:15:02.145Z,21.9
2022-10-03T04:30:04.495Z,21.8
2022-10-03T04:45:03.397Z,21.8
2022-10-03T05:00:05.213Z,21.8
2022-10-03T05:15:03.794Z,21.8
2022-10-03T05:30:11.028Z,21.8
2022-10-03T05:45:06.959Z,21.8
2022-10-03T06:00:10.701Z,21.8
2022-10-03T06:15:02.815Z,21.8
2022-10-03T06:30:04.895Z,21.8
2022-10-03T06:45:03.462Z,21.8
2022-10-03T07:00:08.569Z,21.9
2022-10-03T07:15:03.279Z,21.9
2022-10-03T07:30:12.529Z,21.9
2022-10-03T07:45:02.111Z,21.9
2022-10-03T08:00:06.375Z,22.0
2022-10-03T08:15:03.788Z,22
2022-10-03T08:30:09.354Z,22
2022-10-03T08:45:04.331Z,22
2022-10-03T09:00:06.309Z,22.1
2022-10-03T09:15:03.216Z,22.1
2022-10-03T09:30:10.746Z,22.1
2022-10-03T09:45:02.648Z,22.1
2022-10-03T10:00:09.369Z,22.2
2022-10-03T10:15:04.927Z,22.2
2022-10-03T10:30:13.185Z,22.2
2022-10-03T10:45:06.042Z,22.2
2022-10-03T11:00:10.292Z,22.3
2022-10-03T11:15:02.648Z,22.3
2022-10-03T11:30:07.355Z,22.3
2022-10-03T11:45:02.925Z,22.3
2022-10-03T12:00:08.610Z,22.3
2022-10-03T12:15:02.868Z,22.3
2022-10-03T12:30:11.115Z,22.3
2022-10-03T12:45:04.895Z,22.4
2022-10-03T13:00:04.993Z,22.4
2022-10-03T13:15:04.666Z,22.4
2022-10-03T13:30:06.967Z,22.4
2022-10-03T13:45:04.727Z,22.5
2022-10-03T14:00:12.659Z,22.5
2022-10-03T14:15:05.294Z,22.5
2022-10-03T14:30:06.808Z,22.5
2022-10-03T14:45:05.615Z,22.6
2022-10-03T15:00:08.579Z,22.6
2022-10-03T15:15:02.684Z,22.6
2022-10-03T15:30:05.029Z,22.6
2022-10-03T15:45:07.490Z,22.6
2022-10-03T16:00:07.142Z,22.6
2022-10-03T16:15:02.372Z,22.6
2022-10-03T16:30:09.734Z,22.6
2022-10-03T16:45:02.999Z,22.5
2022-10-03T17:00:07.392Z,22.5
2022-10-03T17:15:02.931Z,22.5
2022-10-03T17:30:04.416Z,22.5
2022-10-03T17:45:02.543Z,22.4
2022-10-03T18:00:07.104Z,22.4
2022-10-03T18:15:02.476Z,22.4
2022-10-03T18:30:11.591Z,22.3
2022-10-03T18:45:04.465Z,22.3
2022-10-03T19:00:06.915Z,22.3
2022-10-03T19:15:04.667Z,22.3
2022-10-03T19:30:07.361Z,22.2
2022-10-03T19:45:03.271Z,22.2
2022-10-03T20:00:08.721Z,22.2
2022-10-03T20:15:02.435Z,22.2
2022-10-03T20:30:08.508Z,22.1
2022-10-03T20:45:02.624Z,22.1
2022-10-03T21:00:07.484Z,22.1
2022-10-03T21:15:03.504Z,22.1
2022-10-03T21:30:06.399Z,22.1
2022-10-03T21:45:04.784Z,22.1
2022-10-03T22:00:05.222Z,22.1
2022-10-03T22:15:03.096Z,22.0
2022-10-03T22:30:05.108Z,22.0
2022-10-03T22:45:03.374Z,22
2022-10-03T23:00:08.390Z,22
2022-10-03T23:15:04.169Z,22
2022-10-03T23:30:05.512Z,22
2022-10-03T23:45:02.442Z,22
